createdAt,value
2016-12-13T00:00:25.168Z,0
2016-12-13T00:01:36.372Z,0
2016-12-13T00:02:47.555Z,0
2016-12-13T00:03:58.803Z,0
2016-12-13T00:05:10.294Z,0
2016-12-13T00:06:21.442Z,0
2016-12-13T00:07:32.589Z,0
2016-12-13T00:08:43.757Z,0
2016-12-13T00:09:54.938Z,0
2016-12-13T00:11:06.585Z,0
2016-12-13T00:12:17.790Z,0
2016-12-13T00:13:28.961Z,0
2016-12-13T00:14:40.531Z,0
2016-12-13T00:15:51.945Z,0
2016-12-13T00:17:03.327Z,0
2016-12-13T00:18:14.747Z,0
2016-12-13T00:19:26.000Z,0
2016-12-13T00:20:37.130Z,0
2016-12-13T00:21:48.261Z,0
2016-12-13T00:22:59.437Z,0
2016-12-13T00:24:10.618Z,0
2016-12-13T00:25:21.755Z,0
2016-12-13T00:26:32.876Z,0
2016-12-13T00:27:44.378Z,0
2016-12-13T00:28:55.609Z,0
2016-12-13T00:30:06.843Z,0
2016-12-13T00:31:18.059Z,0
2016-12-13T00:32:29.171Z,0
2016-12-13T00:33:40.423Z,0
2016-12-13T00:34:51.591Z,0
2016-12-13T00:36:02.823Z,0
2016-12-13T00:37:13.995Z,0
2016-12-13T00:38:25.322Z,0
2016-12-13T00:39:36.792Z,0
2016-12-13T00:40:48.176Z,0
2016-12-13T00:41:59.878Z,0
2016-12-13T00:43:10.993Z,0
2016-12-13T00:44:22.111Z,0
2016-12-13T00:45:33.274Z,0
2016-12-13T00:46:44.385Z,0
2016-12-13T00:47:55.580Z,0
2016-12-13T00:49:06.801Z,0
2016-12-13T00:50:17.984Z,0
2016-12-13T00:51:29.446Z,0
2016-12-13T00:52:40.610Z,0
2016-12-13T00:53:51.834Z,0
2016-12-13T00:55:03.001Z,0
2016-12-13T00:56:14.111Z,0
2016-12-13T00:57:27.443Z,0
2016-12-13T00:58:38.575Z,0
2016-12-13T00:59:49.866Z,0
2016-12-13T01:01:01.058Z,0
2016-12-13T01:02:12.226Z,0
2016-12-13T01:03:23.403Z,0
2016-12-13T01:04:34.520Z,0
2016-12-13T01:05:45.750Z,0
2016-12-13T01:06:56.883Z,0
2016-12-13T01:08:08.102Z,0
2016-12-13T01:09:19.334Z,0
2016-12-13T01:10:31.425Z,0
2016-12-13T01:11:42.558Z,0
2016-12-13T01:12:53.734Z,0
2016-12-13T01:14:04.864Z,0
2016-12-13T01:15:16.089Z,0
2016-12-13T01:16:27.258Z,0
2016-12-13T01:17:38.440Z,0
2016-12-13T01:18:49.586Z,0
2016-12-13T01:20:00.742Z,0
2016-12-13T01:21:11.904Z,0
2016-12-13T01:22:23.168Z,0
2016-12-13T01:23:34.388Z,0
2016-12-13T01:24:45.524Z,0
2016-12-13T01:25:56.616Z,0
2016-12-13T01:27:07.803Z,0
2016-12-13T01:28:18.987Z,0
2016-12-13T01:29:30.102Z,0
2016-12-13T01:30:41.319Z,0
2016-12-13T01:31:52.431Z,0
2016-12-13T01:33:03.633Z,0
2016-12-13T01:34:14.825Z,0
2016-12-13T01:35:25.967Z,0
2016-12-13T01:36:37.191Z,0
2016-12-13T01:37:48.505Z,0
2016-12-13T01:38:59.679Z,0
2016-12-13T01:40:10.916Z,0
2016-12-13T01:41:23.839Z,0
2016-12-13T01:42:35.290Z,0
2016-12-13T01:43:46.818Z,0
2016-12-13T01:44:57.987Z,0
2016-12-13T01:46:09.493Z,0
2016-12-13T01:47:20.674Z,0
2016-12-13T01:48:31.855Z,0
2016-12-13T01:49:43.039Z,0
2016-12-13T01:50:54.149Z,0
2016-12-13T01:52:05.435Z,0
2016-12-13T01:53:16.567Z,0
2016-12-13T01:54:27.758Z,0
2016-12-13T01:55:38.877Z,0
2016-12-13T01:56:50.049Z,0
2016-12-13T01:58:01.156Z,0
2016-12-13T01:59:12.304Z,0
2016-12-13T02:00:23.561Z,0
2016-12-13T02:01:34.668Z,0
2016-12-13T02:02:45.803Z,0
2016-12-13T02:03:56.918Z,0
2016-12-13T02:05:08.098Z,0
2016-12-13T02:06:19.724Z,0
2016-12-13T02:07:30.896Z,0
2016-12-13T02:08:42.031Z,0
2016-12-13T02:09:53.176Z,0
2016-12-13T02:11:06.533Z,0
2016-12-13T02:12:17.703Z,0
2016-12-13T02:13:28.928Z,0
2016-12-13T02:14:40.130Z,0
2016-12-13T02:15:51.242Z,0
2016-12-13T02:17:02.378Z,0
2016-12-13T02:18:13.891Z,0
2016-12-13T02:19:25.060Z,0
2016-12-13T02:20:36.174Z,0
2016-12-13T02:21:47.315Z,0
2016-12-13T02:22:58.482Z,0
2016-12-13T02:24:10.056Z,0
2016-12-13T02:25:21.206Z,0
2016-12-13T02:26:32.375Z,0
2016-12-13T02:27:43.499Z,0
2016-12-13T02:28:54.647Z,0
2016-12-13T02:31:08.018Z,0
2016-12-13T02:32:20.370Z,0
2016-12-13T02:34:57.598Z,0
2016-12-13T02:36:09.174Z,0
2016-12-13T02:37:20.401Z,0
2016-12-13T02:38:31.575Z,0
2016-12-13T02:39:42.990Z,0
2016-12-13T02:40:54.421Z,0
2016-12-13T02:42:05.607Z,0
2016-12-13T02:43:16.772Z,0
2016-12-13T02:44:28.175Z,0
2016-12-13T02:45:39.662Z,0
2016-12-13T02:46:50.798Z,0
2016-12-13T02:48:31.631Z,0
2016-12-13T02:49:43.033Z,0
2016-12-13T02:50:54.409Z,0
2016-12-13T02:52:05.573Z,0
2016-12-13T02:53:16.760Z,0
2016-12-13T02:54:28.180Z,0
2016-12-13T02:55:39.317Z,0
2016-12-13T02:56:51.119Z,0
2016-12-13T02:58:02.310Z,0
2016-12-13T02:59:13.588Z,0
2016-12-13T03:00:40.124Z,0
2016-12-13T03:01:51.240Z,0
2016-12-13T03:03:02.879Z,0
2016-12-13T03:04:14.116Z,0
2016-12-13T03:05:25.233Z,0
2016-12-13T03:06:36.413Z,0
2016-12-13T03:07:47.924Z,0
2016-12-13T03:08:59.629Z,0
2016-12-13T03:10:10.809Z,0
2016-12-13T03:11:22.000Z,0
2016-12-13T03:12:33.231Z,0
2016-12-13T03:13:44.460Z,0
2016-12-13T03:14:55.901Z,0
2016-12-13T03:16:07.400Z,0
2016-12-13T03:17:18.847Z,0
2016-12-13T03:18:30.285Z,0
2016-12-13T03:19:41.780Z,0
2016-12-13T03:20:53.573Z,0
2016-12-13T03:22:05.281Z,0
2016-12-13T03:23:16.419Z,0
2016-12-13T03:24:27.637Z,0
2016-12-13T03:25:38.761Z,0
2016-12-13T03:26:52.346Z,0
2016-12-13T03:28:03.781Z,0
2016-12-13T03:29:14.989Z,0
2016-12-13T03:30:26.125Z,0
2016-12-13T03:31:37.343Z,0
2016-12-13T03:32:49.005Z,0
2016-12-13T03:34:00.460Z,0
2016-12-13T03:35:11.564Z,0
2016-12-13T03:36:22.771Z,0
2016-12-13T03:37:33.909Z,0
2016-12-13T03:38:45.351Z,0
2016-12-13T03:39:57.445Z,0
2016-12-13T03:41:08.606Z,0
2016-12-13T03:42:19.764Z,0
2016-12-13T03:43:30.922Z,0
2016-12-13T03:44:42.291Z,0
2016-12-13T03:45:53.733Z,0
2016-12-13T03:47:04.871Z,0
2016-12-13T03:48:16.033Z,0
2016-12-13T03:49:42.268Z,0
2016-12-13T03:50:53.442Z,0
2016-12-13T03:52:04.572Z,0
2016-12-13T03:53:15.723Z,0
2016-12-13T03:54:26.902Z,0
2016-12-13T03:55:38.053Z,0
2016-12-13T03:56:49.251Z,0
2016-12-13T03:58:00.737Z,0
2016-12-13T03:59:11.896Z,0
2016-12-13T04:00:23.077Z,0
2016-12-13T04:01:34.527Z,0
2016-12-13T04:02:45.703Z,0
2016-12-13T04:03:56.837Z,0
2016-12-13T04:05:08.012Z,0
2016-12-13T04:06:19.156Z,0
2016-12-13T04:07:30.679Z,0
2016-12-13T04:08:41.850Z,0
2016-12-13T04:09:53.340Z,0
2016-12-13T04:11:04.580Z,0
2016-12-13T04:12:15.832Z,0
2016-12-13T04:13:27.074Z,0
2016-12-13T04:14:38.273Z,0
2016-12-13T04:15:49.465Z,0
2016-12-13T04:17:00.658Z,0
2016-12-13T04:18:11.893Z,0
2016-12-13T04:19:23.474Z,0
2016-12-13T04:20:34.695Z,0
2016-12-13T04:21:46.158Z,0
2016-12-13T04:22:57.329Z,0
2016-12-13T04:24:08.452Z,0
2016-12-13T04:25:19.637Z,0
2016-12-13T04:26:31.106Z,0
2016-12-13T04:27:42.301Z,0
2016-12-13T04:28:53.768Z,0
2016-12-13T04:30:04.952Z,0
2016-12-13T04:31:16.066Z,0
2016-12-13T04:32:27.419Z,0
2016-12-13T04:33:53.390Z,0
2016-12-13T04:35:04.503Z,0
2016-12-13T04:36:15.722Z,0
2016-12-13T04:37:27.007Z,0
2016-12-13T04:38:38.347Z,0
2016-12-13T04:39:49.491Z,0
2016-12-13T04:41:02.829Z,0
2016-12-13T04:42:14.303Z,0
2016-12-13T04:43:25.707Z,0
2016-12-13T04:44:36.861Z,0
2016-12-13T04:45:48.133Z,0
2016-12-13T04:46:59.306Z,0
2016-12-13T04:48:10.438Z,0
2016-12-13T04:49:21.947Z,0
2016-12-13T04:50:33.092Z,0
2016-12-13T04:51:44.210Z,0
2016-12-13T04:52:55.348Z,0
2016-12-13T04:54:07.199Z,0
2016-12-13T04:55:18.397Z,0
2016-12-13T04:56:29.907Z,0
2016-12-13T04:57:41.056Z,0
2016-12-13T04:58:52.524Z,0
2016-12-13T05:00:03.664Z,0
2016-12-13T05:01:14.969Z,0
2016-12-13T05:02:26.113Z,0
2016-12-13T05:03:37.462Z,0
2016-12-13T05:04:48.631Z,0
2016-12-13T05:05:59.743Z,0
2016-12-13T05:07:12.404Z,0
2016-12-13T05:08:24.403Z,0
2016-12-13T05:09:35.827Z,0
2016-12-13T05:10:46.965Z,0
2016-12-13T05:11:58.078Z,0
2016-12-13T05:13:09.814Z,0
2016-12-13T05:14:21.063Z,0
2016-12-13T05:15:32.310Z,0
2016-12-13T05:16:43.443Z,0
2016-12-13T05:17:54.760Z,0
2016-12-13T05:19:06.132Z,0
2016-12-13T05:20:17.705Z,0
2016-12-13T05:21:29.223Z,0
2016-12-13T05:22:40.529Z,0
2016-12-13T05:23:51.662Z,0
2016-12-13T05:25:02.848Z,0
2016-12-13T05:26:14.100Z,0
2016-12-13T05:27:25.358Z,0
2016-12-13T05:28:36.532Z,0
2016-12-13T05:29:48.044Z,0
2016-12-13T05:30:59.320Z,0
2016-12-13T05:32:10.543Z,0
2016-12-13T05:33:35.255Z,0
2016-12-13T05:34:46.524Z,0
2016-12-13T05:35:59.455Z,0
2016-12-13T05:37:10.811Z,0
2016-12-13T05:38:31.118Z,0
2016-12-13T05:39:42.284Z,0
2016-12-13T05:40:53.440Z,0
2016-12-13T05:42:04.629Z,0
2016-12-13T05:43:15.805Z,0
2016-12-13T05:44:27.172Z,0
2016-12-13T05:45:40.054Z,0
2016-12-13T05:47:00.942Z,0
2016-12-13T05:48:12.612Z,0
2016-12-13T05:49:24.115Z,0
2016-12-13T05:50:35.396Z,0
2016-12-13T05:51:47.373Z,0
2016-12-13T05:52:58.825Z,0
2016-12-13T05:54:10.917Z,0
2016-12-13T05:55:25.195Z,0
2016-12-13T05:56:37.272Z,0
2016-12-13T05:57:49.655Z,0
2016-12-13T05:59:01.451Z,0
2016-12-13T06:00:13.491Z,0
2016-12-13T06:01:25.112Z,0
2016-12-13T06:02:36.410Z,0
2016-12-13T06:03:47.752Z,0
2016-12-13T06:04:59.212Z,0
2016-12-13T06:06:10.467Z,0
2016-12-13T06:07:21.636Z,0
2016-12-13T06:08:32.779Z,0
2016-12-13T06:09:44.006Z,0
2016-12-13T06:10:55.177Z,0
2016-12-13T06:12:06.909Z,0
2016-12-13T06:13:18.051Z,0
2016-12-13T06:14:29.174Z,0
2016-12-13T06:15:40.362Z,0
2016-12-13T06:16:51.925Z,0
2016-12-13T06:18:03.682Z,0
2016-12-13T06:19:14.948Z,0
2016-12-13T06:20:26.109Z,0
2016-12-13T06:21:37.375Z,0
2016-12-13T06:22:48.653Z,0
2016-12-13T06:24:00.476Z,0
2016-12-13T06:25:11.660Z,0
2016-12-13T06:26:22.780Z,0
2016-12-13T06:27:34.297Z,0
2016-12-13T06:28:45.417Z,0
2016-12-13T06:29:57.176Z,0
2016-12-13T06:31:08.289Z,0
2016-12-13T06:32:19.557Z,0
2016-12-13T06:33:30.749Z,0
2016-12-13T06:34:41.959Z,0
2016-12-13T06:35:54.031Z,0
2016-12-13T06:37:05.153Z,0
2016-12-13T06:38:16.304Z,0
2016-12-13T06:39:27.801Z,0
2016-12-13T06:40:38.929Z,0
2016-12-13T06:41:50.721Z,0
2016-12-13T06:43:01.858Z,0
2016-12-13T06:44:13.640Z,0
2016-12-13T06:45:24.843Z,0
2016-12-13T06:46:36.319Z,0
2016-12-13T06:47:48.004Z,0
2016-12-13T06:48:59.516Z,0
2016-12-13T06:50:10.658Z,0
2016-12-13T06:51:21.937Z,0
2016-12-13T06:52:33.067Z,0
2016-12-13T06:53:45.373Z,0
2016-12-13T06:54:56.525Z,0
2016-12-13T06:56:07.680Z,0
2016-12-13T06:57:18.856Z,0
2016-12-13T06:58:30.668Z,0
2016-12-13T06:59:42.272Z,0
2016-12-13T07:00:53.439Z,0
2016-12-13T07:02:04.628Z,0
2016-12-13T07:03:16.138Z,0
2016-12-13T07:04:27.348Z,0
2016-12-13T07:05:39.056Z,0
2016-12-13T07:06:50.292Z,0
2016-12-13T07:08:01.470Z,0
2016-12-13T07:09:15.111Z,0
2016-12-13T07:10:26.263Z,0
2016-12-13T07:11:38.216Z,0
2016-12-13T07:12:50.480Z,0
2016-12-13T07:14:02.323Z,0
2016-12-13T07:15:13.727Z,0
2016-12-13T07:16:24.889Z,0
2016-12-13T07:17:36.320Z,0
2016-12-13T07:18:48.621Z,0
2016-12-13T07:20:00.294Z,0
2016-12-13T07:21:11.509Z,0
2016-12-13T07:22:22.659Z,0
2016-12-13T07:23:37.906Z,0
2016-12-13T07:24:50.706Z,0
2016-12-13T07:26:03.028Z,0
2016-12-13T07:27:15.613Z,0
2016-12-13T07:28:27.660Z,0
2016-12-13T07:29:39.833Z,0
2016-12-13T07:30:51.844Z,0
2016-12-13T07:32:03.423Z,0
2016-12-13T07:33:15.164Z,0
2016-12-13T07:34:26.882Z,5
2016-12-13T07:35:39.162Z,5
2016-12-13T07:36:50.884Z,5
2016-12-13T07:38:02.291Z,5
2016-12-13T07:39:13.822Z,5
2016-12-13T07:40:24.954Z,5
2016-12-13T07:41:36.463Z,5
2016-12-13T07:42:47.585Z,10
2016-12-13T07:43:59.018Z,10
2016-12-13T07:45:10.526Z,10
2016-12-13T07:46:21.797Z,15
2016-12-13T07:47:33.302Z,15
2016-12-13T07:48:44.493Z,10
2016-12-13T07:49:55.912Z,15
2016-12-13T07:51:07.148Z,15
2016-12-13T07:52:18.560Z,15
2016-12-13T07:53:29.735Z,15
2016-12-13T07:54:40.881Z,15
2016-12-13T07:55:52.141Z,15
2016-12-13T07:57:03.364Z,10
2016-12-13T07:58:14.816Z,10
2016-12-13T07:59:26.461Z,15
2016-12-13T08:00:37.613Z,15
2016-12-13T08:01:48.809Z,15
2016-12-13T08:03:00.310Z,15
2016-12-13T08:04:12.067Z,15
2016-12-13T08:05:23.511Z,15
2016-12-13T08:06:35.010Z,20
2016-12-13T08:07:46.405Z,20
2016-12-13T08:08:57.925Z,20
2016-12-13T08:10:09.476Z,30
2016-12-13T08:11:21.332Z,30
2016-12-13T08:12:32.724Z,30
2016-12-13T08:13:43.874Z,35
2016-12-13T08:14:55.014Z,40
2016-12-13T08:16:06.226Z,35
2016-12-13T08:17:17.692Z,40
2016-12-13T08:18:28.809Z,35
2016-12-13T08:19:40.305Z,30
2016-12-13T08:20:52.046Z,30
2016-12-13T08:22:03.480Z,35
2016-12-13T08:23:17.479Z,35
2016-12-13T08:24:28.631Z,35
2016-12-13T08:25:39.776Z,40
2016-12-13T08:26:51.839Z,35
2016-12-13T08:28:18.158Z,35
2016-12-13T08:29:29.630Z,35
2016-12-13T08:30:40.756Z,30
2016-12-13T08:31:51.905Z,25
2016-12-13T08:33:03.053Z,25
2016-12-13T08:34:14.240Z,25
2016-12-13T08:35:25.720Z,30
2016-12-13T08:36:37.504Z,25
2016-12-13T08:37:48.657Z,35
2016-12-13T08:39:00.188Z,35
2016-12-13T08:40:11.403Z,35
2016-12-13T08:41:22.876Z,35
2016-12-13T08:42:34.389Z,30
2016-12-13T08:43:45.529Z,30
2016-12-13T08:44:56.702Z,30
2016-12-13T08:46:08.221Z,30
2016-12-13T08:47:19.987Z,30
2016-12-13T08:48:31.687Z,35
2016-12-13T08:49:42.895Z,30
2016-12-13T08:50:54.138Z,30
2016-12-13T08:52:05.688Z,35
2016-12-13T08:53:17.075Z,35
2016-12-13T08:54:28.585Z,30
2016-12-13T08:55:39.744Z,30
2016-12-13T08:56:50.945Z,30
2016-12-13T08:58:02.902Z,35
2016-12-13T08:59:14.521Z,35
2016-12-13T09:00:26.235Z,35
2016-12-13T09:01:37.614Z,40
2016-12-13T09:02:49.087Z,35
2016-12-13T09:04:01.163Z,45
2016-12-13T09:05:12.871Z,45
2016-12-13T09:06:24.697Z,40
2016-12-13T09:07:36.316Z,40
2016-12-13T09:08:47.885Z,40
2016-12-13T09:09:59.906Z,45
2016-12-13T09:11:11.829Z,45
2016-12-13T09:12:23.566Z,50
2016-12-13T09:13:34.817Z,45
2016-12-13T09:14:45.980Z,45
2016-12-13T09:15:57.540Z,40
2016-12-13T09:17:09.235Z,35
2016-12-13T09:18:20.695Z,35
2016-12-13T09:19:32.126Z,40
2016-12-13T09:20:43.286Z,40
2016-12-13T09:21:54.486Z,40
2016-12-13T09:23:05.868Z,40
2016-12-13T09:24:17.346Z,45
2016-12-13T09:25:28.601Z,40
2016-12-13T09:26:39.726Z,40
2016-12-13T09:27:50.952Z,45
2016-12-13T09:29:02.391Z,45
2016-12-13T09:30:13.831Z,45
2016-12-13T09:31:25.040Z,50
2016-12-13T09:32:36.263Z,50
2016-12-13T09:33:47.429Z,45
2016-12-13T09:34:58.832Z,55
2016-12-13T09:36:10.401Z,60
2016-12-13T09:37:23.825Z,55
2016-12-13T09:38:35.239Z,65
2016-12-13T09:39:47.336Z,75
2016-12-13T09:40:58.741Z,65
2016-12-13T09:42:10.155Z,55
2016-12-13T09:43:21.302Z,60
2016-12-13T09:44:32.603Z,55
2016-12-13T09:45:43.899Z,60
2016-12-13T09:46:55.672Z,65
2016-12-13T09:48:07.223Z,70
2016-12-13T09:49:18.435Z,65
2016-12-13T09:50:29.780Z,60
2016-12-13T09:51:41.537Z,60
2016-12-13T09:52:53.272Z,55
2016-12-13T09:54:05.247Z,60
2016-12-13T09:55:16.759Z,65
2016-12-13T09:56:28.099Z,55
2016-12-13T09:57:39.453Z,50
2016-12-13T09:58:50.900Z,60
2016-12-13T10:00:03.082Z,60
2016-12-13T10:01:14.899Z,60
2016-12-13T10:02:26.399Z,55
2016-12-13T10:03:37.764Z,55
2016-12-13T10:04:49.924Z,50
2016-12-13T10:06:01.347Z,55
2016-12-13T10:07:12.514Z,50
2016-12-13T10:08:24.078Z,45
2016-12-13T10:09:35.512Z,50
2016-12-13T10:10:46.651Z,55
2016-12-13T10:11:58.152Z,55
2016-12-13T10:13:09.387Z,55
2016-12-13T10:14:20.519Z,50
2016-12-13T10:15:31.958Z,50
2016-12-13T10:16:43.198Z,55
2016-12-13T10:17:54.950Z,50
2016-12-13T10:19:06.140Z,50
2016-12-13T10:20:17.292Z,50
2016-12-13T10:21:43.638Z,60
2016-12-13T10:22:54.763Z,55
2016-12-13T10:24:06.193Z,50
2016-12-13T10:25:17.356Z,55
2016-12-13T10:26:28.583Z,45
2016-12-13T10:27:40.347Z,45
2016-12-13T10:28:51.740Z,35
2016-12-13T10:30:03.645Z,35
2016-12-13T10:31:14.856Z,40
2016-12-13T10:32:26.099Z,40
2016-12-13T10:33:37.351Z,40
2016-12-13T10:34:49.291Z,40
2016-12-13T10:36:00.826Z,40
2016-12-13T10:37:12.062Z,40
2016-12-13T10:38:23.281Z,40
2016-12-13T10:39:34.558Z,45
2016-12-13T10:40:46.023Z,45
2016-12-13T10:41:57.476Z,45
2016-12-13T10:43:08.909Z,45
2016-12-13T10:44:21.639Z,45
2016-12-13T10:45:34.171Z,45
2016-12-13T10:46:45.509Z,45
2016-12-13T10:47:57.563Z,45
2016-12-13T10:49:08.745Z,45
2016-12-13T10:50:21.188Z,50
2016-12-13T10:51:34.841Z,45
2016-12-13T10:52:45.977Z,45
2016-12-13T10:53:57.437Z,45
2016-12-13T10:55:08.578Z,50
2016-12-13T10:56:20.009Z,45
2016-12-13T10:57:31.156Z,45
2016-12-13T10:58:57.377Z,45
2016-12-13T11:00:08.787Z,45
2016-12-13T11:01:20.869Z,40
2016-12-13T11:02:32.072Z,45
2016-12-13T11:03:44.470Z,45
2016-12-13T11:04:55.689Z,45
2016-12-13T11:06:07.160Z,45
2016-12-13T11:07:18.655Z,40
2016-12-13T11:08:29.999Z,35
2016-12-13T11:09:41.322Z,40
2016-12-13T11:10:52.531Z,35
2016-12-13T11:12:05.156Z,35
2016-12-13T11:13:18.167Z,35
2016-12-13T11:14:29.401Z,35
2016-12-13T11:15:40.570Z,35
2016-12-13T11:17:15.032Z,35
2016-12-13T11:18:26.489Z,35
2016-12-13T11:19:37.688Z,35
2016-12-13T11:20:48.869Z,35
2016-12-13T11:22:09.163Z,35
2016-12-13T11:23:20.298Z,35
2016-12-13T11:24:31.564Z,40
2016-12-13T11:25:42.718Z,50
2016-12-13T11:26:53.824Z,50
2016-12-13T11:28:04.991Z,65
2016-12-13T11:29:16.774Z,60
2016-12-13T11:30:28.259Z,50
2016-12-13T11:31:39.460Z,50
2016-12-13T11:32:50.602Z,45
2016-12-13T11:34:01.799Z,45
2016-12-13T11:35:13.026Z,50
2016-12-13T11:36:24.213Z,45
2016-12-13T11:37:35.865Z,45
2016-12-13T11:38:47.148Z,45
2016-12-13T11:39:58.396Z,45
2016-12-13T11:41:09.797Z,55
2016-12-13T11:42:21.601Z,50
2016-12-13T11:43:33.416Z,50
2016-12-13T11:44:44.785Z,50
2016-12-13T11:45:56.023Z,50
2016-12-13T11:47:07.307Z,50
2016-12-13T11:48:18.518Z,50
2016-12-13T11:49:30.092Z,55
2016-12-13T11:50:43.756Z,55
2016-12-13T11:51:56.088Z,50
2016-12-13T11:53:07.694Z,55
2016-12-13T11:54:19.081Z,55
2016-12-13T11:55:32.189Z,55
2016-12-13T11:56:45.530Z,60
2016-12-13T11:57:56.872Z,60
2016-12-13T11:59:08.240Z,65
2016-12-13T12:00:20.010Z,65
2016-12-13T12:01:32.437Z,60
2016-12-13T12:02:59.140Z,60
2016-12-13T12:04:11.923Z,55
2016-12-13T12:05:24.465Z,50
2016-12-13T12:06:38.336Z,45
2016-12-13T12:07:49.688Z,45
2016-12-13T12:09:00.871Z,40
2016-12-13T12:10:12.369Z,40
2016-12-13T12:11:23.962Z,45
2016-12-13T12:12:35.461Z,45
2016-12-13T12:13:46.754Z,40
2016-12-13T12:14:57.981Z,35
2016-12-13T12:16:09.366Z,35
2016-12-13T12:17:21.041Z,35
2016-12-13T12:18:32.332Z,35
2016-12-13T12:19:43.568Z,35
2016-12-13T12:20:54.774Z,35
2016-12-13T12:22:07.051Z,30
2016-12-13T12:23:18.552Z,25
2016-12-13T12:24:31.403Z,25
2016-12-13T12:25:44.411Z,25
2016-12-13T12:26:55.686Z,25
2016-12-13T12:28:06.893Z,25
2016-12-13T12:29:18.041Z,25
2016-12-13T12:30:29.408Z,25
2016-12-13T12:31:40.689Z,25
2016-12-13T12:32:52.184Z,25
2016-12-13T12:34:03.731Z,30
2016-12-13T12:35:15.052Z,30
2016-12-13T12:36:26.575Z,30
2016-12-13T12:37:37.917Z,30
2016-12-13T12:38:50.084Z,30
2016-12-13T12:40:02.125Z,30
2016-12-13T12:41:14.167Z,30
2016-12-13T12:42:26.725Z,30
2016-12-13T12:43:38.013Z,30
2016-12-13T12:44:51.325Z,30
2016-12-13T12:46:03.483Z,30
2016-12-13T12:47:15.234Z,35
2016-12-13T12:48:26.622Z,35
2016-12-13T12:49:37.846Z,35
2016-12-13T12:50:49.114Z,40
2016-12-13T12:52:00.638Z,40
2016-12-13T12:53:12.662Z,40
2016-12-13T12:54:23.929Z,40
2016-12-13T12:55:35.413Z,40
2016-12-13T12:56:46.959Z,40
2016-12-13T12:57:58.281Z,35
2016-12-13T12:59:09.784Z,35
2016-12-13T13:00:21.226Z,40
2016-12-13T13:01:32.417Z,40
2016-12-13T13:02:43.822Z,40
2016-12-13T13:03:55.085Z,40
2016-12-13T13:05:06.416Z,35
2016-12-13T13:06:17.627Z,35
2016-12-13T13:07:28.926Z,40
2016-12-13T13:08:40.113Z,40
2016-12-13T13:09:51.513Z,45
2016-12-13T13:11:03.623Z,45
2016-12-13T13:12:15.179Z,40
2016-12-13T13:13:26.334Z,40
2016-12-13T13:14:37.496Z,55
2016-12-13T13:15:49.692Z,40
2016-12-13T13:17:00.815Z,40
2016-12-13T13:18:12.209Z,40
2016-12-13T13:19:23.354Z,35
2016-12-13T13:20:36.820Z,30
2016-12-13T13:21:48.833Z,25
2016-12-13T13:23:00.078Z,25
2016-12-13T13:24:11.379Z,30
2016-12-13T13:25:22.852Z,30
2016-12-13T13:26:34.391Z,30
2016-12-13T13:27:45.593Z,30
2016-12-13T13:28:57.653Z,35
2016-12-13T13:30:08.880Z,35
2016-12-13T13:31:20.032Z,35
2016-12-13T13:32:32.306Z,30
2016-12-13T13:33:44.515Z,30
2016-12-13T13:34:56.023Z,25
2016-12-13T13:36:07.529Z,35
2016-12-13T13:37:20.309Z,35
2016-12-13T13:38:31.604Z,30
2016-12-13T13:39:43.184Z,30
2016-12-13T13:40:54.388Z,30
2016-12-13T13:42:05.762Z,30
2016-12-13T13:43:17.244Z,25
2016-12-13T13:44:29.142Z,20
2016-12-13T13:45:40.461Z,20
2016-12-13T13:46:52.208Z,20
2016-12-13T13:48:04.797Z,20
2016-12-13T13:49:16.575Z,15
2016-12-13T13:50:28.124Z,15
2016-12-13T13:51:39.586Z,15
2016-12-13T13:52:50.990Z,15
2016-12-13T13:54:02.849Z,10
2016-12-13T13:55:14.274Z,10
2016-12-13T13:56:25.490Z,10
2016-12-13T13:57:37.055Z,10
2016-12-13T13:58:48.295Z,10
2016-12-13T13:59:59.958Z,15
2016-12-13T14:01:11.432Z,15
2016-12-13T14:02:23.134Z,15
2016-12-13T14:03:34.632Z,15
2016-12-13T14:04:46.318Z,15
2016-12-13T14:05:57.603Z,10
2016-12-13T14:07:08.839Z,10
2016-12-13T14:08:21.063Z,10
2016-12-13T14:09:32.544Z,10
2016-12-13T14:10:45.114Z,10
2016-12-13T14:11:56.291Z,5
2016-12-13T14:13:07.468Z,5
2016-12-13T14:14:19.796Z,5
2016-12-13T14:15:46.597Z,5
2016-12-13T14:16:57.915Z,5
2016-12-13T14:18:09.562Z,5
2016-12-13T14:19:21.215Z,0
2016-12-13T14:20:33.339Z,5
2016-12-13T14:21:44.625Z,0
2016-12-13T14:22:56.322Z,0
2016-12-13T14:24:07.531Z,0
2016-12-13T14:25:18.837Z,0
2016-12-13T14:26:39.574Z,5
2016-12-13T14:27:51.262Z,5
2016-12-13T14:29:04.632Z,5
2016-12-13T14:31:00.332Z,5
2016-12-13T14:32:26.458Z,5
2016-12-13T14:34:22.469Z,5
2016-12-13T14:35:34.137Z,5
2016-12-13T14:37:02.567Z,5
2016-12-13T14:40:39.757Z,5
2016-12-13T14:45:52.169Z,0
2016-12-13T14:47:03.580Z,0
2016-12-13T14:48:14.745Z,0
2016-12-13T14:49:55.733Z,5
2016-12-13T14:53:32.971Z,0
2016-12-13T14:54:59.211Z,0
2016-12-13T14:58:06.447Z,0
2016-12-13T14:59:18.491Z,0
2016-12-13T15:00:29.959Z,0
2016-12-13T15:02:10.963Z,0
2016-12-13T15:04:06.703Z,0
2016-12-13T15:06:45.653Z,0
2016-12-13T15:07:57.883Z,0
2016-12-13T15:09:09.397Z,0
2016-12-13T15:10:35.717Z,0
2016-12-13T15:12:31.736Z,0
2016-12-13T15:13:43.131Z,0
2016-12-13T15:14:55.038Z,0
2016-12-13T15:18:03.267Z,0
2016-12-13T15:19:14.667Z,0
2016-12-13T15:20:26.336Z,0
2016-12-13T15:21:52.867Z,0
2016-12-13T15:26:56.139Z,0
2016-12-13T15:28:08.015Z,0
2016-12-13T15:29:19.528Z,0
2016-12-13T15:30:30.840Z,0
2016-12-13T15:32:27.423Z,0
2016-12-13T15:33:54.202Z,0
2016-12-13T15:35:06.175Z,0
2016-12-13T15:36:17.718Z,0
2016-12-13T15:37:30.319Z,0
2016-12-13T15:40:40.528Z,0
2016-12-13T15:42:22.037Z,0
2016-12-13T15:43:33.332Z,0
2016-12-13T15:44:59.613Z,0
2016-12-13T15:46:10.858Z,0
2016-12-13T15:51:59.242Z,0
2016-12-13T15:53:40.332Z,0
2016-12-13T15:55:21.630Z,0
2016-12-13T15:57:02.555Z,0
2016-12-13T15:58:29.532Z,0
2016-12-13T15:59:41.097Z,0
2016-12-13T16:02:48.665Z,0
2016-12-13T16:03:59.919Z,0
2016-12-13T16:05:26.197Z,0
2016-12-13T16:06:37.779Z,0
2016-12-13T16:08:03.752Z,0
2016-12-13T16:09:17.917Z,0
2016-12-13T16:10:29.456Z,0
2016-12-13T16:11:40.720Z,0
2016-12-13T16:12:53.924Z,0
2016-12-13T16:14:05.747Z,0
2016-12-13T16:15:17.066Z,0
2016-12-13T16:16:28.492Z,0
2016-12-13T16:17:39.637Z,0
2016-12-13T16:18:52.742Z,0
2016-12-13T16:20:04.012Z,0
2016-12-13T16:21:15.296Z,0
2016-12-13T16:22:27.458Z,0
2016-12-13T16:23:39.188Z,0
2016-12-13T16:24:50.475Z,0
2016-12-13T16:26:03.373Z,0
2016-12-13T16:27:16.842Z,0
2016-12-13T16:28:29.028Z,0
2016-12-13T16:29:40.712Z,0
2016-12-13T16:30:52.096Z,0
2016-12-13T16:32:03.519Z,0
2016-12-13T16:33:15.432Z,0
2016-12-13T16:34:26.957Z,0
2016-12-13T16:35:44.993Z,0
2016-12-13T16:36:57.926Z,0
2016-12-13T16:38:09.242Z,0
2016-12-13T16:39:20.702Z,0
2016-12-13T16:40:32.579Z,0
2016-12-13T16:41:58.808Z,0
2016-12-13T16:43:10.354Z,0
2016-12-13T16:44:23.058Z,0
2016-12-13T16:45:37.546Z,0
2016-12-13T16:46:51.758Z,0
2016-12-13T16:48:03.307Z,0
2016-12-13T16:49:14.600Z,0
2016-12-13T16:50:25.856Z,0
2016-12-13T16:51:37.720Z,0
2016-12-13T16:52:49.672Z,0
2016-12-13T16:54:02.835Z,0
2016-12-13T16:55:14.318Z,0
2016-12-13T16:56:25.594Z,0
2016-12-13T16:57:38.325Z,0
2016-12-13T16:58:49.859Z,0
2016-12-13T17:00:01.523Z,0
2016-12-13T17:01:14.224Z,0
2016-12-13T17:02:26.541Z,0
2016-12-13T17:03:38.452Z,0
2016-12-13T17:04:49.923Z,0
2016-12-13T17:06:01.643Z,0
2016-12-13T17:07:27.748Z,0
2016-12-13T17:08:40.080Z,0
2016-12-13T17:09:51.416Z,0
2016-12-13T17:11:03.496Z,0
2016-12-13T17:12:14.933Z,0
2016-12-13T17:13:26.675Z,0
2016-12-13T17:14:37.889Z,0
2016-12-13T17:15:49.232Z,0
2016-12-13T17:17:01.190Z,0
2016-12-13T17:18:12.868Z,0
2016-12-13T17:19:25.752Z,0
2016-12-13T17:20:50.513Z,0
2016-12-13T17:22:01.815Z,0
2016-12-13T17:23:13.208Z,0
2016-12-13T17:24:26.782Z,0
2016-12-13T17:25:38.516Z,0
2016-12-13T17:26:49.858Z,0
2016-12-13T17:28:01.403Z,0
2016-12-13T17:29:12.843Z,0
2016-12-13T17:30:44.220Z,0
2016-12-13T17:31:56.283Z,0
2016-12-13T17:33:08.666Z,0
2016-12-13T17:34:20.535Z,0
2016-12-13T17:35:32.228Z,0
2016-12-13T17:36:43.823Z,0
2016-12-13T17:37:55.539Z,0
2016-12-13T17:39:06.691Z,0
2016-12-13T17:40:17.974Z,0
2016-12-13T17:41:29.544Z,0
2016-12-13T17:42:40.856Z,0
2016-12-13T17:43:52.694Z,0
2016-12-13T17:45:04.064Z,0
2016-12-13T17:46:15.372Z,0
2016-12-13T17:47:28.511Z,0
2016-12-13T17:48:41.378Z,0
2016-12-13T17:49:53.191Z,0
2016-12-13T17:51:05.576Z,0
2016-12-13T17:52:17.809Z,0
2016-12-13T17:53:30.131Z,0
2016-12-13T17:54:42.325Z,0
2016-12-13T17:55:53.943Z,0
2016-12-13T17:57:05.635Z,0
2016-12-13T17:58:17.551Z,0
2016-12-13T17:59:29.971Z,0
2016-12-13T18:00:42.329Z,0
2016-12-13T18:01:54.299Z,0
2016-12-13T18:03:05.619Z,0
2016-12-13T18:04:17.105Z,0
2016-12-13T18:05:28.961Z,0
2016-12-13T18:06:41.483Z,0